createdAt,value
2018-03-08T00:00:55.417Z,141.67
2018-03-08T00:03:23.319Z,162.50
2018-03-08T00:05:49.187Z,142.30
2018-03-08T00:08:15.057Z,161.87
2018-03-08T00:10:40.947Z,162.40
2018-03-08T00:13:06.799Z,152.10
2018-03-08T00:15:32.640Z,122.00
2018-03-08T00:17:58.609Z,142.33
2018-03-08T00:20:24.495Z,166.17
2018-03-08T00:22:50.347Z,156.10
2018-03-08T00:25:16.232Z,155.03
2018-03-08T00:27:42.088Z,161.03
2018-03-08T00:30:07.946Z,145.10
2018-03-08T00:32:33.845Z,163.57
2018-03-08T00:34:59.792Z,162.90
2018-03-08T00:37:25.644Z,137.17
2018-03-08T00:39:51.550Z,155.70
2018-03-08T00:42:17.400Z,169.40
2018-03-08T00:44:43.235Z,156.77
2018-03-08T00:47:09.405Z,155.43
2018-03-08T00:49:35.280Z,155.40
2018-03-08T00:52:01.138Z,127.57
2018-03-08T00:54:27.108Z,156.97
2018-03-08T00:56:52.961Z,134.33
2018-03-08T00:59:18.804Z,180.40
2018-03-08T01:01:44.701Z,160.27
2018-03-08T01:04:10.565Z,125.47
2018-03-08T01:06:36.416Z,142.43
2018-03-08T01:09:02.328Z,139.40
2018-03-08T01:11:28.196Z,131.70
2018-03-08T01:13:54.052Z,140.23
2018-03-08T01:16:19.944Z,128.20
2018-03-08T01:18:45.788Z,154.53
2018-03-08T01:21:11.641Z,143.30
2018-03-08T01:23:37.528Z,162.27
2018-03-08T01:26:03.469Z,140.53
2018-03-08T01:28:29.326Z,159.87
2018-03-08T01:30:55.292Z,153.97
2018-03-08T01:33:21.140Z,125.90
2018-03-08T01:35:47.066Z,146.53
2018-03-08T01:38:12.960Z,147.03
2018-03-08T01:40:38.819Z,150.07
2018-03-08T01:43:04.671Z,149.37
2018-03-08T01:45:30.665Z,138.40
2018-03-08T01:47:56.528Z,156.87
2018-03-08T01:50:22.390Z,146.53
2018-03-08T01:52:48.289Z,115.97
2018-03-08T01:55:14.132Z,141.33
2018-03-08T01:57:40.004Z,149.27
2018-03-08T02:00:05.913Z,184.30
2018-03-08T02:02:31.763Z,199.43
2018-03-08T02:04:57.665Z,171.17
2018-03-08T02:07:23.564Z,144.00
2018-03-08T02:09:54.973Z,173.20
2018-03-08T02:12:20.875Z,202.17
2018-03-08T02:14:46.770Z,175.53
2018-03-08T02:17:12.625Z,177.00
2018-03-08T02:19:38.845Z,174.10
2018-03-08T02:22:04.920Z,217.13
2018-03-08T02:24:30.772Z,213.57
2018-03-08T02:26:56.616Z,209.17
2018-03-08T02:29:22.497Z,203.70
2018-03-08T02:31:48.345Z,230.53
2018-03-08T02:34:14.200Z,235.43
2018-03-08T02:36:40.108Z,210.07
2018-03-08T02:39:06.002Z,212.33
2018-03-08T02:41:31.851Z,205.47
2018-03-08T02:43:57.729Z,211.30
2018-03-08T02:46:23.580Z,235.17
2018-03-08T02:48:49.420Z,235.20
2018-03-08T02:51:15.392Z,251.83
2018-03-08T02:53:41.241Z,188.93
2018-03-08T02:56:07.085Z,177.73
2018-03-08T02:58:32.969Z,161.03
2018-03-08T03:00:58.827Z,160.23
2018-03-08T03:03:24.680Z,187.87
2018-03-08T03:05:50.571Z,189.53
2018-03-08T03:08:16.417Z,165.07
2018-03-08T03:10:42.273Z,176.80
2018-03-08T03:13:08.156Z,202.93
2018-03-08T03:15:34.020Z,242.80
2018-03-08T03:17:59.864Z,251.93
2018-03-08T03:20:25.748Z,253.23
2018-03-08T03:22:51.604Z,242.97
2018-03-08T03:25:17.445Z,256.63
2018-03-08T03:27:43.339Z,272.83
2018-03-08T03:30:09.194Z,243.93
2018-03-08T03:32:35.043Z,263.27
2018-03-08T03:35:00.932Z,288.40
2018-03-08T03:37:26.776Z,312.63
2018-03-08T03:39:52.648Z,260.23
2018-03-08T03:42:18.529Z,236.63
2018-03-08T03:44:44.380Z,226.23
2018-03-08T03:47:10.240Z,241.83
2018-03-08T03:49:36.134Z,178.47
2018-03-08T03:52:01.984Z,205.83
2018-03-08T03:54:27.824Z,200.20
2018-03-08T03:56:53.716Z,207.50
2018-03-08T03:59:19.564Z,202.77
2018-03-08T04:01:45.408Z,221.00
2018-03-08T04:04:11.335Z,239.77
2018-03-08T04:06:37.272Z,261.07
2018-03-08T04:09:03.153Z,247.93
2018-03-08T04:11:29.201Z,202.47
2018-03-08T04:13:55.056Z,218.20
2018-03-08T04:16:20.902Z,256.47
2018-03-08T04:18:46.823Z,285.77
2018-03-08T04:21:12.672Z,290.73
2018-03-08T04:23:38.524Z,278.93
2018-03-08T04:26:04.400Z,262.30
2018-03-08T04:28:30.258Z,242.83
2018-03-08T04:30:56.104Z,207.80
2018-03-08T04:33:22.005Z,230.63
2018-03-08T04:35:47.853Z,201.50
2018-03-08T04:38:13.692Z,212.20
2018-03-08T04:40:39.664Z,209.67
2018-03-08T04:43:05.496Z,212.30
2018-03-08T04:45:31.413Z,205.70
2018-03-08T04:47:57.313Z,213.40
2018-03-08T04:50:23.165Z,201.93
2018-03-08T04:52:49.129Z,225.37
2018-03-08T04:55:15.025Z,206.27
2018-03-08T04:57:40.876Z,195.27
2018-03-08T05:00:06.733Z,196.23
2018-03-08T05:02:32.660Z,199.17
2018-03-08T05:04:58.603Z,169.80
2018-03-08T05:07:24.549Z,167.03
2018-03-08T05:09:50.435Z,176.87
2018-03-08T05:12:16.307Z,169.03
2018-03-08T05:14:42.140Z,157.47
2018-03-08T05:17:08.570Z,151.80
2018-03-08T05:19:34.496Z,140.90
2018-03-08T05:22:00.332Z,139.60
2018-03-08T05:24:26.220Z,143.37
2018-03-08T05:26:52.069Z,145.77
2018-03-08T05:29:18.003Z,161.03
2018-03-08T05:31:43.944Z,145.77
2018-03-08T05:34:09.788Z,143.20
2018-03-08T05:36:35.637Z,146.37
2018-03-08T05:39:01.520Z,130.00
2018-03-08T05:41:27.484Z,136.50
2018-03-08T05:43:53.407Z,111.77
2018-03-08T05:46:19.331Z,156.77
2018-03-08T05:48:45.172Z,136.70
2018-03-08T05:51:11.016Z,142.33
2018-03-08T05:53:37.000Z,159.83
2018-03-08T05:56:02.909Z,161.80
2018-03-08T05:58:28.764Z,153.80
2018-03-08T06:00:54.677Z,176.63
2018-03-08T06:03:20.520Z,178.97
2018-03-08T06:05:46.456Z,195.87
2018-03-08T06:08:12.393Z,188.57
2018-03-08T06:10:38.245Z,168.83
2018-03-08T06:13:04.088Z,175.43
2018-03-08T06:15:29.985Z,161.53
2018-03-08T06:17:55.920Z,178.07
2018-03-08T06:20:21.809Z,163.10
2018-03-08T06:22:47.716Z,149.00
2018-03-08T06:25:13.574Z,149.60
2018-03-08T06:27:39.437Z,126.67
2018-03-08T06:30:05.455Z,124.33
2018-03-08T06:32:31.376Z,125.80
2018-03-08T06:34:57.224Z,112.47
2018-03-08T06:37:23.116Z,104.77
2018-03-08T06:39:48.972Z,93.70
2018-03-08T06:42:14.908Z,85.43
2018-03-08T06:44:40.864Z,81.23
2018-03-08T06:47:06.712Z,76.57
2018-03-08T06:49:32.558Z,67.77
2018-03-08T06:51:58.497Z,65.80
2018-03-08T06:54:24.416Z,69.07
2018-03-08T06:56:50.316Z,65.67
2018-03-08T06:59:16.216Z,66.40
2018-03-08T07:01:42.113Z,55.50
2018-03-08T07:04:07.969Z,56.63
2018-03-08T07:06:33.978Z,55.67
2018-03-08T07:08:59.897Z,54.20
2018-03-08T07:11:25.744Z,57.70
2018-03-08T07:13:51.664Z,52.63
2018-03-08T07:16:17.510Z,51.50
2018-03-08T07:18:43.461Z,46.17
2018-03-08T07:21:09.471Z,46.73
2018-03-08T07:23:35.344Z,48.73
2018-03-08T07:26:01.462Z,43.40
2018-03-08T07:28:27.431Z,51.17
2018-03-08T07:30:53.352Z,49.27
2018-03-08T07:33:19.269Z,48.10
2018-03-08T07:35:45.168Z,44.40
2018-03-08T07:38:11.020Z,47.67
2018-03-08T07:40:36.884Z,41.63
2018-03-08T07:43:02.934Z,41.73
2018-03-08T07:45:28.835Z,45.00
2018-03-08T07:47:54.684Z,40.17
2018-03-08T07:50:20.717Z,41.13
2018-03-08T07:52:46.572Z,44.97
2018-03-08T07:55:12.505Z,39.40
2018-03-08T07:57:38.532Z,40.10
2018-03-08T08:00:04.404Z,40.43
2018-03-08T08:02:30.248Z,42.40
2018-03-08T08:05:08.362Z,40.50
2018-03-08T08:07:46.605Z,38.13
2018-03-08T08:10:12.492Z,43.03
2018-03-08T08:12:38.661Z,39.13
2018-03-08T08:15:04.553Z,40.07
2018-03-08T08:17:30.556Z,35.90
2018-03-08T08:19:56.440Z,33.47
2018-03-08T08:22:22.288Z,32.60
2018-03-08T08:24:48.201Z,34.27
2018-03-08T08:27:14.132Z,31.27
2018-03-08T08:29:40.079Z,30.93
2018-03-08T08:32:06.049Z,31.80
2018-03-08T08:34:31.912Z,32.23
2018-03-08T08:36:57.761Z,29.67
2018-03-08T08:39:23.737Z,31.33
2018-03-08T08:41:49.701Z,29.40
2018-03-08T08:44:15.561Z,29.77
2018-03-08T08:46:42.042Z,27.97
2018-03-08T08:49:07.948Z,28.47
2018-03-08T08:51:33.804Z,24.97
2018-03-08T08:53:59.911Z,28.27
2018-03-08T08:56:25.802Z,27.37
2018-03-08T08:58:52.063Z,25.30
2018-03-08T09:01:18.048Z,28.87
2018-03-08T09:03:43.905Z,25.53
2018-03-08T09:06:09.757Z,26.40
2018-03-08T09:08:35.749Z,26.40
2018-03-08T09:11:02.072Z,24.57
2018-03-08T09:13:27.935Z,25.90
2018-03-08T09:15:53.877Z,22.30
2018-03-08T09:18:19.727Z,22.70
2018-03-08T09:20:45.676Z,23.07
2018-03-08T09:23:11.837Z,26.87
2018-03-08T09:25:37.756Z,25.00
2018-03-08T09:28:03.706Z,23.40
2018-03-08T09:30:29.677Z,22.30
2018-03-08T09:32:55.975Z,19.77
2018-03-08T09:35:21.900Z,24.13
2018-03-08T09:37:53.977Z,22.17
2018-03-08T09:40:19.833Z,22.47
2018-03-08T09:42:46.046Z,24.90
2018-03-08T09:45:11.945Z,26.07
2018-03-08T09:47:37.801Z,26.67
2018-03-08T09:50:03.744Z,27.40
2018-03-08T09:52:29.619Z,24.57
2018-03-08T09:54:55.893Z,22.23
2018-03-08T09:57:21.852Z,25.33
2018-03-08T09:59:47.820Z,24.30
2018-03-08T10:02:13.664Z,26.17
2018-03-08T10:04:39.541Z,24.73
2018-03-08T10:07:05.492Z,26.40
2018-03-08T10:09:31.404Z,30.67
2018-03-08T10:11:57.248Z,30.03
2018-03-08T10:14:23.216Z,31.43
2018-03-08T10:16:49.104Z,32.13
2018-03-08T10:19:15.049Z,31.33
2018-03-08T10:21:45.163Z,34.63
2018-03-08T10:24:06.822Z,33.80
2018-03-08T10:26:32.793Z,31.73
2018-03-08T10:28:58.687Z,33.17
2018-03-08T10:31:24.540Z,34.87
2018-03-08T10:33:50.397Z,37.57
2018-03-08T10:36:16.296Z,35.10
2018-03-08T10:38:42.150Z,32.47
2018-03-08T10:41:08.009Z,31.33
2018-03-08T10:43:33.900Z,30.13
2018-03-08T10:45:59.740Z,30.10
2018-03-08T10:48:25.584Z,31.57
2018-03-08T10:50:51.484Z,29.60
2018-03-08T10:53:17.332Z,27.87
2018-03-08T10:55:43.212Z,27.70
2018-03-08T10:58:09.104Z,29.57
2018-03-08T11:03:47.036Z,28.37
2018-03-08T11:06:18.893Z,29.53
2018-03-08T11:08:44.805Z,31.70
2018-03-08T11:11:10.783Z,32.20
2018-03-08T11:13:36.620Z,27.20
2018-03-08T11:16:03.050Z,27.87
2018-03-08T11:18:28.993Z,30.67
2018-03-08T11:20:54.884Z,32.87
2018-03-08T11:23:20.747Z,31.90
2018-03-08T11:25:47.544Z,32.30
2018-03-08T11:28:13.397Z,30.17
2018-03-08T11:30:39.248Z,25.23
2018-03-08T11:33:05.200Z,26.67
2018-03-08T11:35:31.056Z,28.47
2018-03-08T11:37:56.917Z,27.13
2018-03-08T11:40:22.812Z,26.53
2018-03-08T11:42:48.662Z,25.73
2018-03-08T11:45:14.577Z,26.53
2018-03-08T11:47:40.560Z,26.40
2018-03-08T11:50:06.525Z,25.53
2018-03-08T11:52:32.457Z,25.63
2018-03-08T11:54:58.405Z,26.63
2018-03-08T11:57:24.259Z,28.77
2018-03-08T11:59:50.108Z,24.60
2018-03-08T12:02:16.072Z,25.40
2018-03-08T12:04:41.932Z,23.53
2018-03-08T12:07:07.871Z,25.47
2018-03-08T12:09:33.883Z,27.30
2018-03-08T12:11:59.887Z,28.17
2018-03-08T12:14:25.834Z,27.33
2018-03-08T12:16:51.736Z,28.47
2018-03-08T12:19:17.749Z,24.90
2018-03-08T12:21:43.602Z,23.80
2018-03-08T12:24:09.488Z,26.17
2018-03-08T12:26:35.341Z,23.67
2018-03-08T12:29:01.205Z,25.73
2018-03-08T12:31:27.100Z,25.67
2018-03-08T12:33:52.947Z,25.23
2018-03-08T12:36:18.921Z,27.57
2018-03-08T12:38:44.813Z,25.10
2018-03-08T12:41:10.675Z,24.53
2018-03-08T12:43:36.638Z,23.37
2018-03-08T12:46:02.575Z,21.63
2018-03-08T12:48:28.449Z,25.30
2018-03-08T12:50:54.397Z,21.47
2018-03-08T12:53:20.303Z,22.90
2018-03-08T12:55:46.185Z,24.73
2018-03-08T12:58:12.050Z,22.33
2018-03-08T13:00:37.973Z,21.83
2018-03-08T13:03:03.932Z,22.73
2018-03-08T13:05:29.905Z,19.67
2018-03-08T13:07:55.820Z,24.47
2018-03-08T13:10:21.709Z,19.80
2018-03-08T13:12:47.557Z,21.37
2018-03-08T13:15:13.552Z,20.10
2018-03-08T13:17:39.401Z,19.53
2018-03-08T13:20:05.248Z,21.07
2018-03-08T13:22:31.140Z,17.97
2018-03-08T13:24:56.984Z,19.33
2018-03-08T13:27:22.926Z,20.70
2018-03-08T13:29:48.856Z,17.50
2018-03-08T13:32:14.708Z,18.33
2018-03-08T13:34:40.567Z,17.37
2018-03-08T13:37:06.472Z,16.77
2018-03-08T13:39:32.446Z,17.97
2018-03-08T13:41:58.298Z,17.47
2018-03-08T13:44:24.212Z,14.90
2018-03-08T13:46:50.124Z,16.13
2018-03-08T13:49:28.221Z,13.63
2018-03-08T13:51:54.181Z,13.80
2018-03-08T13:54:20.024Z,13.63
2018-03-08T13:56:45.911Z,15.17
2018-03-08T13:59:11.770Z,13.10
2018-03-08T14:01:37.622Z,15.07
2018-03-08T14:04:03.590Z,12.37
2018-03-08T14:06:29.443Z,12.93
2018-03-08T14:08:55.317Z,11.67
2018-03-08T14:11:21.282Z,9.37
2018-03-08T14:13:47.136Z,11.67
2018-03-08T14:16:13.006Z,10.17
2018-03-08T14:18:38.896Z,8.83
2018-03-08T14:21:04.755Z,8.60
2018-03-08T14:23:30.628Z,8.07
2018-03-08T14:25:56.525Z,9.73
2018-03-08T14:28:22.388Z,8.90
2018-03-08T14:30:48.338Z,7.47
2018-03-08T14:33:14.267Z,6.13
2018-03-08T14:35:40.120Z,7.37
2018-03-08T14:38:06.018Z,8.40
2018-03-08T14:40:31.908Z,6.60
2018-03-08T14:42:57.764Z,8.60
2018-03-08T14:45:23.628Z,7.13
2018-03-08T14:47:49.623Z,6.77
2018-03-08T14:50:15.417Z,5.90
2018-03-08T14:52:41.270Z,6.57
2018-03-08T14:55:07.160Z,8.53
2018-03-08T14:57:33.153Z,6.73
2018-03-08T14:59:59.000Z,5.00
2018-03-08T15:02:24.890Z,7.37
2018-03-08T15:04:50.793Z,7.17
2018-03-08T15:07:16.673Z,8.40
2018-03-08T15:09:42.581Z,6.17
2018-03-08T15:12:08.527Z,5.17
2018-03-08T15:14:34.372Z,4.83
2018-03-08T15:17:00.261Z,5.00
2018-03-08T15:19:26.132Z,4.43
2018-03-08T15:21:51.982Z,4.60
2018-03-08T15:24:17.931Z,5.80
2018-03-08T15:26:43.769Z,4.37
2018-03-08T15:29:09.678Z,6.07
2018-03-08T15:31:35.625Z,6.20
2018-03-08T15:34:01.488Z,7.10
2018-03-08T15:36:27.332Z,5.47
2018-03-08T15:38:53.320Z,6.03
2018-03-08T15:41:19.188Z,3.63
2018-03-08T15:43:45.057Z,6.53
2018-03-08T15:46:11.026Z,4.90
2018-03-08T15:48:36.929Z,4.50
2018-03-08T15:51:02.800Z,5.80
2018-03-08T15:53:28.796Z,4.33
2018-03-08T15:55:54.723Z,4.57
2018-03-08T15:58:20.600Z,5.80
2018-03-08T16:00:46.531Z,5.23
2018-03-08T16:03:12.380Z,5.53
2018-03-08T16:05:38.276Z,6.23
2018-03-08T16:11:23.036Z,5.67
2018-03-08T16:13:48.924Z,7.77
2018-03-08T16:16:14.820Z,6.40
2018-03-08T16:18:40.673Z,4.63
2018-03-08T16:21:06.646Z,5.80
2018-03-08T16:23:32.493Z,6.27
2018-03-08T16:25:58.440Z,5.70
2018-03-08T16:28:24.324Z,10.10
2018-03-08T16:30:50.175Z,4.90
2018-03-08T16:33:16.030Z,6.27
2018-03-08T16:35:41.931Z,5.47
2018-03-08T16:38:07.800Z,8.20
2018-03-08T16:40:33.652Z,8.20
2018-03-08T16:42:59.544Z,6.70
2018-03-08T16:45:25.505Z,5.57
2018-03-08T16:47:51.349Z,6.13
2018-03-08T16:50:17.244Z,6.50
2018-03-08T16:52:43.192Z,6.97
2018-03-08T16:55:09.061Z,10.33
2018-03-08T16:57:34.978Z,6.27
2018-03-08T17:00:00.865Z,8.13
2018-03-08T17:02:26.718Z,6.80
2018-03-08T17:04:52.609Z,7.70
2018-03-08T17:07:18.535Z,7.63
2018-03-08T17:09:44.424Z,9.47
2018-03-08T17:12:10.322Z,8.53
2018-03-08T17:14:36.241Z,7.23
2018-03-08T17:17:02.074Z,10.47
2018-03-08T17:19:28.007Z,7.93
2018-03-08T17:21:53.857Z,10.50
2018-03-08T17:24:19.729Z,8.37
2018-03-08T17:26:45.674Z,9.07
2018-03-08T17:29:11.536Z,8.97
2018-03-08T17:31:37.410Z,6.83
2018-03-08T17:34:03.300Z,8.03
2018-03-08T17:36:29.180Z,6.97
2018-03-08T17:38:55.237Z,9.97
2018-03-08T17:41:21.180Z,7.10
2018-03-08T17:43:47.044Z,6.57
2018-03-08T17:46:12.888Z,8.07
2018-03-08T17:48:38.802Z,7.20
2018-03-08T17:51:04.664Z,7.77
2018-03-08T17:53:30.613Z,9.07
2018-03-08T17:55:56.622Z,9.87
2018-03-08T17:58:25.414Z,10.10
2018-03-08T18:00:52.961Z,8.27
2018-03-08T18:03:19.409Z,8.37
2018-03-08T18:05:45.266Z,11.43
2018-03-08T18:08:11.159Z,7.07
2018-03-08T18:10:37.142Z,9.40
2018-03-08T18:13:03.308Z,8.83
2018-03-08T18:15:29.176Z,9.77
2018-03-08T18:17:55.072Z,8.93
2018-03-08T18:20:21.004Z,9.87
2018-03-08T18:22:46.861Z,7.80
2018-03-08T18:25:12.790Z,6.80
2018-03-08T18:27:38.651Z,8.00
2018-03-08T18:30:04.525Z,7.43
2018-03-08T18:32:30.528Z,7.07
2018-03-08T18:34:56.704Z,10.00
2018-03-08T18:37:22.641Z,9.67
2018-03-08T18:39:48.554Z,10.07
2018-03-08T18:42:14.401Z,9.57
2018-03-08T18:44:40.375Z,10.30
2018-03-08T18:47:06.369Z,9.30
2018-03-08T18:49:32.320Z,8.17
2018-03-08T18:51:58.242Z,7.20
2018-03-08T18:54:24.143Z,9.80
2018-03-08T18:56:50.129Z,7.77
2018-03-08T18:59:15.985Z,10.13
2018-03-08T19:01:42.170Z,7.47
2018-03-08T19:04:08.362Z,9.30
2018-03-08T19:06:35.464Z,8.43
2018-03-08T19:09:01.503Z,9.43
2018-03-08T19:11:27.384Z,9.50
2018-03-08T19:13:53.306Z,8.77
2018-03-08T19:16:19.205Z,10.63
2018-03-08T19:18:52.109Z,9.43
2018-03-08T19:21:18.138Z,8.43
2018-03-08T19:23:44.053Z,5.87
2018-03-08T19:26:09.917Z,6.33
2018-03-08T19:28:35.781Z,7.80
2018-03-08T19:31:01.698Z,6.30
2018-03-08T19:33:27.610Z,7.53
2018-03-08T19:35:53.577Z,6.40
2018-03-08T19:38:19.465Z,7.87
2018-03-08T19:40:45.317Z,5.73
2018-03-08T19:43:11.204Z,6.80
2018-03-08T19:45:37.146Z,5.13
2018-03-08T19:48:03.022Z,5.80
2018-03-08T19:50:28.876Z,5.43
2018-03-08T19:52:54.780Z,5.30
2018-03-08T19:55:20.655Z,5.00
2018-03-08T19:57:46.522Z,5.03
2018-03-08T20:00:12.503Z,6.23
2018-03-08T20:02:38.397Z,5.57
2018-03-08T20:05:04.262Z,6.70
2018-03-08T20:07:30.152Z,7.50
2018-03-08T20:09:56.066Z,5.13
2018-03-08T20:12:21.929Z,4.83
2018-03-08T20:14:47.896Z,5.73
2018-03-08T20:17:13.750Z,6.43
2018-03-08T20:19:39.592Z,6.03
2018-03-08T20:22:07.284Z,6.60
2018-03-08T20:24:33.123Z,6.03
2018-03-08T20:26:58.997Z,4.70
2018-03-08T20:29:25.254Z,5.97
2018-03-08T20:31:51.111Z,5.00
2018-03-08T20:34:16.969Z,5.43
2018-03-08T20:36:42.922Z,6.27
2018-03-08T20:39:08.824Z,8.20
2018-03-08T20:41:34.677Z,4.70
2018-03-08T20:44:00.586Z,5.37
2018-03-08T20:46:26.436Z,6.53
2018-03-08T20:48:52.346Z,4.67
2018-03-08T20:51:18.253Z,6.63
2018-03-08T20:53:44.121Z,7.40
2018-03-08T20:56:09.973Z,6.20
2018-03-08T20:58:35.875Z,7.67
2018-03-08T21:01:01.826Z,5.00
2018-03-08T21:03:27.684Z,6.33
2018-03-08T21:05:53.597Z,7.53
2018-03-08T21:08:19.461Z,5.10
2018-03-08T21:10:45.732Z,7.57
2018-03-08T21:13:11.667Z,5.80
2018-03-08T21:15:37.516Z,5.63
2018-03-08T21:18:03.373Z,7.63
2018-03-08T21:20:29.293Z,6.83
2018-03-08T21:22:55.236Z,5.50
2018-03-08T21:25:21.083Z,6.93
2018-03-08T21:27:47.020Z,6.00
2018-03-08T21:30:12.876Z,5.63
2018-03-08T21:32:38.721Z,6.23
2018-03-08T21:35:04.705Z,5.07
2018-03-08T21:37:30.569Z,7.17
2018-03-08T21:39:56.420Z,5.63
2018-03-08T21:42:22.342Z,5.83
2018-03-08T21:44:48.196Z,6.60
2018-03-08T21:47:14.160Z,8.00
2018-03-08T21:49:40.080Z,6.27
2018-03-08T21:52:05.928Z,6.23
2018-03-08T21:54:31.768Z,10.43
2018-03-08T21:56:57.676Z,6.73
2018-03-08T21:59:23.625Z,9.33
2018-03-08T22:01:49.492Z,9.90
2018-03-08T22:04:15.393Z,7.83
2018-03-08T22:06:41.244Z,8.27
2018-03-08T22:09:07.094Z,7.30
2018-03-08T22:11:33.077Z,8.03
2018-03-08T22:13:58.924Z,10.37
2018-03-08T22:16:24.784Z,8.63
2018-03-08T22:18:50.681Z,8.80
2018-03-08T22:21:16.548Z,8.47
2018-03-08T22:23:42.499Z,10.63
2018-03-08T22:26:08.403Z,10.33
2018-03-08T22:28:34.265Z,11.93
2018-03-08T22:31:00.117Z,8.87
2018-03-08T22:33:26.017Z,12.63
2018-03-08T22:35:51.980Z,10.37
2018-03-08T22:38:17.836Z,10.93
2018-03-08T22:40:43.733Z,11.17
2018-03-08T22:43:09.692Z,9.23
2018-03-08T22:45:35.524Z,10.53
2018-03-08T22:48:01.500Z,12.30
2018-03-08T22:50:27.348Z,8.77
2018-03-08T22:52:53.196Z,8.80
2018-03-08T22:55:19.093Z,10.40
2018-03-08T22:57:44.945Z,11.73
2018-03-08T23:00:12.508Z,10.60
2018-03-08T23:02:38.408Z,10.63
2018-03-08T23:05:04.260Z,12.30
2018-03-08T23:07:30.111Z,11.30
2018-03-08T23:09:56.089Z,14.77
2018-03-08T23:12:22.016Z,12.33
2018-03-08T23:14:47.860Z,14.13
2018-03-08T23:17:13.759Z,12.57
2018-03-08T23:19:39.664Z,11.07
2018-03-08T23:22:05.524Z,9.73
2018-03-08T23:24:31.532Z,13.70
2018-03-08T23:26:57.383Z,8.13
2018-03-08T23:29:23.301Z,5.67
2018-03-08T23:31:49.188Z,5.53
2018-03-08T23:34:15.069Z,4.67
2018-03-08T23:36:40.965Z,4.17
2018-03-08T23:39:06.973Z,4.87
2018-03-08T23:41:32.849Z,4.30
2018-03-08T23:43:58.695Z,4.07
2018-03-08T23:46:24.665Z,4.33
2018-03-08T23:48:50.893Z,4.23
2018-03-08T23:51:17.360Z,4.57
2018-03-08T23:53:43.412Z,5.53
2018-03-08T23:56:09.572Z,4.13
2018-03-08T23:58:35.620Z,5.53
